sensor_id;sensor_type;location;lat;lon;timestamp;temperature;humidity
36670;DHT22;22662;47.412;9.742;2022-08-18T00:01:17;19.60;99.90
36670;DHT22;22662;47.412;9.742;2022-08-18T00:03:45;19.60;99.90
36670;DHT22;22662;47.412;9.742;2022-08-18T00:06:11;19.60;99.90
36670;DHT22;22662;47.412;9.742;2022-08-18T00:08:37;19.60;99.90
36670;DHT22;22662;47.412;9.742;2022-08-18T00:11:04;19.50;99.90
36670;DHT22;22662;47.412;9.742;2022-08-18T00:13:30;19.50;99.90
36670;DHT22;22662;47.412;9.742;2022-08-18T00:15:56;19.40;99.90
36670;DHT22;22662;47.412;9.742;2022-08-18T00:18:22;19.40;99.90
36670;DHT22;22662;47.412;9.742;2022-08-18T00:20:48;19.40;99.90
36670;DHT22;22662;47.412;9.742;2022-08-18T00:23:14;19.40;99.90
36670;DHT22;22662;47.412;9.742;2022-08-18T00:25:40;19.30;99.90
36670;DHT22;22662;47.412;9.742;2022-08-18T00:28:06;19.30;99.90
36670;DHT22;22662;47.412;9.742;2022-08-18T00:30:32;19.30;99.90
36670;DHT22;22662;47.412;9.742;2022-08-18T00:33:00;19.30;99.90
36670;DHT22;22662;47.412;9.742;2022-08-18T00:35:32;19.20;99.90
36670;DHT22;22662;47.412;9.742;2022-08-18T00:38:02;19.20;99.90
36670;DHT22;22662;47.412;9.742;2022-08-18T00:40:39;19.10;99.90
36670;DHT22;22662;47.412;9.742;2022-08-18T00:43:07;19.10;99.90
36670;DHT22;22662;47.412;9.742;2022-08-18T00:45:38;19.10;99.90
36670;DHT22;22662;47.412;9.742;2022-08-18T00:48:06;19.10;99.90
36670;DHT22;22662;47.412;9.742;2022-08-18T00:50:55;19.10;99.90
36670;DHT22;22662;47.412;9.742;2022-08-18T00:56:06;19.00;99.90
36670;DHT22;22662;47.412;9.742;2022-08-18T00:58:46;19.00;99.90
36670;DHT22;22662;47.412;9.742;2022-08-18T01:01:15;18.90;99.90
36670;DHT22;22662;47.412;9.742;2022-08-18T01:03:43;18.90;99.90
36670;DHT22;22662;47.412;9.742;2022-08-18T01:06:17;18.80;99.90
36670;DHT22;22662;47.412;9.742;2022-08-18T01:08:46;18.70;99.90
36670;DHT22;22662;47.412;9.742;2022-08-18T01:11:12;18.90;99.90
36670;DHT22;22662;47.412;9.742;2022-08-18T01:13:39;19.00;99.90
36670;DHT22;22662;47.412;9.742;2022-08-18T01:16:06;19.10;99.90
36670;DHT22;22662;47.412;9.742;2022-08-18T01:18:51;19.10;99.90
36670;DHT22;22662;47.412;9.742;2022-08-18T01:21:40;19.00;99.90
36670;DHT22;22662;47.412;9.742;2022-08-18T01:24:25;19.00;99.90
36670;DHT22;22662;47.412;9.742;2022-08-18T01:27:14;18.90;99.90
36670;DHT22;22662;47.412;9.742;2022-08-18T01:29:46;18.80;99.90
36670;DHT22;22662;47.412;9.742;2022-08-18T01:32:21;18.90;99.90
36670;DHT22;22662;47.412;9.742;2022-08-18T01:34:49;18.90;99.90
36670;DHT22;22662;47.412;9.742;2022-08-18T01:37:18;19.00;99.90
36670;DHT22;22662;47.412;9.742;2022-08-18T01:39:44;18.90;99.90
36670;DHT22;22662;47.412;9.742;2022-08-18T01:42:11;18.80;99.90
36670;DHT22;22662;47.412;9.742;2022-08-18T01:44:39;18.80;99.90
36670;DHT22;22662;47.412;9.742;2022-08-18T01:47:07;18.80;99.90
36670;DHT22;22662;47.412;9.742;2022-08-18T01:49:35;18.80;99.90
36670;DHT22;22662;47.412;9.742;2022-08-18T01:52:02;18.80;99.90
36670;DHT22;22662;47.412;9.742;2022-08-18T01:54:31;18.80;99.90
36670;DHT22;22662;47.412;9.742;2022-08-18T01:56:57;18.60;99.90
36670;DHT22;22662;47.412;9.742;2022-08-18T01:59:23;18.50;99.90
36670;DHT22;22662;47.412;9.742;2022-08-18T02:01:48;18.50;99.90
36670;DHT22;22662;47.412;9.742;2022-08-18T02:04:17;18.50;99.90
36670;DHT22;22662;47.412;9.742;2022-08-18T02:06:43;18.30;99.90
36670;DHT22;22662;47.412;9.742;2022-08-18T02:09:08;18.30;99.90
36670;DHT22;22662;47.412;9.742;2022-08-18T02:11:34;18.50;99.90
36670;DHT22;22662;47.412;9.742;2022-08-18T02:14:00;18.40;99.90
36670;DHT22;22662;47.412;9.742;2022-08-18T02:16:26;18.40;99.90
36670;DHT22;22662;47.412;9.742;2022-08-18T02:18:52;18.50;99.90
36670;DHT22;22662;47.412;9.742;2022-08-18T02:21:19;18.50;99.90
36670;DHT22;22662;47.412;9.742;2022-08-18T02:23:46;18.50;99.90
36670;DHT22;22662;47.412;9.742;2022-08-18T02:26:15;18.60;99.90
36670;DHT22;22662;47.412;9.742;2022-08-18T02:28:42;18.50;99.90
36670;DHT22;22662;47.412;9.742;2022-08-18T02:31:11;18.50;99.90
36670;DHT22;22662;47.412;9.742;2022-08-18T02:33:37;18.40;99.90
36670;DHT22;22662;47.412;9.742;2022-08-18T02:36:03;18.30;99.90
36670;DHT22;22662;47.412;9.742;2022-08-18T02:38:31;18.30;99.90
36670;DHT22;22662;47.412;9.742;2022-08-18T02:40:59;18.30;99.90
36670;DHT22;22662;47.412;9.742;2022-08-18T02:43:25;18.40;99.90
36670;DHT22;22662;47.412;9.742;2022-08-18T02:45:52;18.40;99.90
36670;DHT22;22662;47.412;9.742;2022-08-18T02:48:18;18.30;99.90
36670;DHT22;22662;47.412;9.742;2022-08-18T02:51:12;18.40;99.90
36670;DHT22;22662;47.412;9.742;2022-08-18T02:53:41;18.60;99.90
36670;DHT22;22662;47.412;9.742;2022-08-18T02:56:15;18.70;99.90
36670;DHT22;22662;47.412;9.742;2022-08-18T02:59:00;18.70;99.90
36670;DHT22;22662;47.412;9.742;2022-08-18T03:01:32;18.70;99.90
36670;DHT22;22662;47.412;9.742;2022-08-18T03:03:59;18.70;99.90
36670;DHT22;22662;47.412;9.742;2022-08-18T03:06:27;18.80;99.90
36670;DHT22;22662;47.412;9.742;2022-08-18T03:08:54;18.90;99.90
36670;DHT22;22662;47.412;9.742;2022-08-18T03:11:26;18.80;99.90
36670;DHT22;22662;47.412;9.742;2022-08-18T03:13:52;18.80;99.90
36670;DHT22;22662;47.412;9.742;2022-08-18T03:16:18;18.70;99.90
36670;DHT22;22662;47.412;9.742;2022-08-18T03:18:46;18.60;99.90
36670;DHT22;22662;47.412;9.742;2022-08-18T03:21:18;18.60;99.90
36670;DHT22;22662;47.412;9.742;2022-08-18T03:23:49;18.70;99.90
36670;DHT22;22662;47.412;9.742;2022-08-18T03:26:16;18.60;99.90
36670;DHT22;22662;47.412;9.742;2022-08-18T03:28:45;18.70;99.90
36670;DHT22;22662;47.412;9.742;2022-08-18T03:31:12;18.70;99.90
36670;DHT22;22662;47.412;9.742;2022-08-18T03:33:42;18.80;99.90
36670;DHT22;22662;47.412;9.742;2022-08-18T03:36:11;18.80;99.90
36670;DHT22;22662;47.412;9.742;2022-08-18T03:38:40;18.70;99.90
36670;DHT22;22662;47.412;9.742;2022-08-18T03:41:11;18.60;99.90
36670;DHT22;22662;47.412;9.742;2022-08-18T03:43:38;18.50;99.90
36670;DHT22;22662;47.412;9.742;2022-08-18T03:46:06;18.60;99.90
36670;DHT22;22662;47.412;9.742;2022-08-18T03:48:35;18.60;99.90
36670;DHT22;22662;47.412;9.742;2022-08-18T03:51:05;18.60;99.90
36670;DHT22;22662;47.412;9.742;2022-08-18T03:53:35;18.70;99.90
36670;DHT22;22662;47.412;9.742;2022-08-18T03:56:06;18.70;99.90
36670;DHT22;22662;47.412;9.742;2022-08-18T03:58:34;18.60;99.90
36670;DHT22;22662;47.412;9.742;2022-08-18T04:01:00;18.80;99.90
36670;DHT22;22662;47.412;9.742;2022-08-18T04:03:28;18.70;99.90
36670;DHT22;22662;47.412;9.742;2022-08-18T04:05:53;18.70;99.90
36670;DHT22;22662;47.412;9.742;2022-08-18T04:08:20;18.80;99.90
36670;DHT22;22662;47.412;9.742;2022-08-18T04:10:46;18.80;99.90
36670;DHT22;22662;47.412;9.742;2022-08-18T04:13:12;18.80;99.90
36670;DHT22;22662;47.412;9.742;2022-08-18T04:15:37;18.80;99.90
36670;DHT22;22662;47.412;9.742;2022-08-18T04:18:03;18.70;99.90
36670;DHT22;22662;47.412;9.742;2022-08-18T04:20:32;18.70;99.90
36670;DHT22;22662;47.412;9.742;2022-08-18T04:22:58;18.60;99.90
36670;DHT22;22662;47.412;9.742;2022-08-18T04:25:24;18.70;99.90
36670;DHT22;22662;47.412;9.742;2022-08-18T04:27:52;18.70;99.90
36670;DHT22;22662;47.412;9.742;2022-08-18T04:30:22;18.70;99.90
36670;DHT22;22662;47.412;9.742;2022-08-18T04:32:48;18.80;99.90
36670;DHT22;22662;47.412;9.742;2022-08-18T04:35:15;18.80;99.90
36670;DHT22;22662;47.412;9.742;2022-08-18T04:37:40;18.90;99.90
36670;DHT22;22662;47.412;9.742;2022-08-18T04:40:09;18.90;99.90
36670;DHT22;22662;47.412;9.742;2022-08-18T04:42:35;19.00;99.90
36670;DHT22;22662;47.412;9.742;2022-08-18T04:45:01;19.00;99.90
36670;DHT22;22662;47.412;9.742;2022-08-18T04:47:27;18.90;99.90
36670;DHT22;22662;47.412;9.742;2022-08-18T04:49:53;18.80;99.90
36670;DHT22;22662;47.412;9.742;2022-08-18T04:52:19;18.70;99.90
36670;DHT22;22662;47.412;9.742;2022-08-18T04:55:04;18.60;99.90
36670;DHT22;22662;47.412;9.742;2022-08-18T04:57:30;18.40;99.90
36670;DHT22;22662;47.412;9.742;2022-08-18T04:59:58;18.40;99.90
36670;DHT22;22662;47.412;9.742;2022-08-18T05:02:24;18.40;99.90
36670;DHT22;22662;47.412;9.742;2022-08-18T05:04:50;18.40;99.90
36670;DHT22;22662;47.412;9.742;2022-08-18T05:07:19;18.20;99.90
36670;DHT22;22662;47.412;9.742;2022-08-18T05:09:46;18.10;99.90
36670;DHT22;22662;47.412;9.742;2022-08-18T05:12:14;18.00;99.90
36670;DHT22;22662;47.412;9.742;2022-08-18T05:14:41;17.90;99.90
36670;DHT22;22662;47.412;9.742;2022-08-18T05:17:09;17.80;99.90
36670;DHT22;22662;47.412;9.742;2022-08-18T05:19:35;17.80;99.90
36670;DHT22;22662;47.412;9.742;2022-08-18T05:22:01;17.90;99.90
36670;DHT22;22662;47.412;9.742;2022-08-18T05:24:29;18.00;99.90
36670;DHT22;22662;47.412;9.742;2022-08-18T05:26:55;18.00;99.90
36670;DHT22;22662;47.412;9.742;2022-08-18T05:29:21;17.80;99.90
36670;DHT22;22662;47.412;9.742;2022-08-18T05:31:49;17.80;99.90
36670;DHT22;22662;47.412;9.742;2022-08-18T05:34:16;17.80;99.90
36670;DHT22;22662;47.412;9.742;2022-08-18T05:41:53;17.80;99.90
36670;DHT22;22662;47.412;9.742;2022-08-18T05:44:25;18.10;99.90
36670;DHT22;22662;47.412;9.742;2022-08-18T05:46:54;18.30;99.90
36670;DHT22;22662;47.412;9.742;2022-08-18T05:49:21;18.50;99.90
36670;DHT22;22662;47.412;9.742;2022-08-18T05:51:53;18.60;99.90
36670;DHT22;22662;47.412;9.742;2022-08-18T05:54:20;18.60;99.90
36670;DHT22;22662;47.412;9.742;2022-08-18T05:57:16;18.70;99.90
36670;DHT22;22662;47.412;9.742;2022-08-18T05:59:44;19.00;99.90
36670;DHT22;22662;47.412;9.742;2022-08-18T06:05:00;19.40;99.90
36670;DHT22;22662;47.412;9.742;2022-08-18T06:07:43;19.40;99.90
36670;DHT22;22662;47.412;9.742;2022-08-18T06:10:10;19.50;99.90
36670;DHT22;22662;47.412;9.742;2022-08-18T06:12:39;19.50;99.90
36670;DHT22;22662;47.412;9.742;2022-08-18T06:18:01;19.00;99.90
36670;DHT22;22662;47.412;9.742;2022-08-18T06:23:32;18.80;99.90
36670;DHT22;22662;47.412;9.742;2022-08-18T06:29:04;18.80;99.90
36670;DHT22;22662;47.412;9.742;2022-08-18T06:31:59;18.60;99.90
36670;DHT22;22662;47.412;9.742;2022-08-18T06:39:49;18.40;99.90
36670;DHT22;22662;47.412;9.742;2022-08-18T06:42:17;18.10;99.90
36670;DHT22;22662;47.412;9.742;2022-08-18T06:44:50;18.10;99.90
36670;DHT22;22662;47.412;9.742;2022-08-18T06:50:09;17.90;99.90
36670;DHT22;22662;47.412;9.742;2022-08-18T06:52:38;18.20;99.90
36670;DHT22;22662;47.412;9.742;2022-08-18T06:55:06;18.30;99.90
36670;DHT22;22662;47.412;9.742;2022-08-18T06:57:40;18.50;99.90
36670;DHT22;22662;47.412;9.742;2022-08-18T07:02:49;18.70;99.90
36670;DHT22;22662;47.412;9.742;2022-08-18T07:05:27;18.70;99.90
36670;DHT22;22662;47.412;9.742;2022-08-18T07:10:41;18.90;99.90
36670;DHT22;22662;47.412;9.742;2022-08-18T07:13:07;19.30;99.90
36670;DHT22;22662;47.412;9.742;2022-08-18T07:15:39;19.30;99.90
36670;DHT22;22662;47.412;9.742;2022-08-18T07:18:06;19.40;99.90
36670;DHT22;22662;47.412;9.742;2022-08-18T07:20:54;19.70;99.90
36670;DHT22;22662;47.412;9.742;2022-08-18T07:23:38;19.70;99.90
36670;DHT22;22662;47.412;9.742;2022-08-18T07:26:11;19.60;99.90
36670;DHT22;22662;47.412;9.742;2022-08-18T07:28:43;19.70;99.90
36670;DHT22;22662;47.412;9.742;2022-08-18T07:33:57;20.00;99.90
36670;DHT22;22662;47.412;9.742;2022-08-18T07:36:26;20.20;99.90
36670;DHT22;22662;47.412;9.742;2022-08-18T07:39:10;20.30;99.90
36670;DHT22;22662;47.412;9.742;2022-08-18T07:41:47;20.50;99.90
36670;DHT22;22662;47.412;9.742;2022-08-18T07:44:20;20.50;99.90
36670;DHT22;22662;47.412;9.742;2022-08-18T07:46:55;20.50;99.90
36670;DHT22;22662;47.412;9.742;2022-08-18T07:49:31;20.60;99.90
36670;DHT22;22662;47.412;9.742;2022-08-18T07:55:32;20.20;99.90
36670;DHT22;22662;47.412;9.742;2022-08-18T08:00:47;19.80;99.90
36670;DHT22;22662;47.412;9.742;2022-08-18T08:06:23;19.60;99.90
36670;DHT22;22662;47.412;9.742;2022-08-18T08:30:20;18.70;99.90
36670;DHT22;22662;47.412;9.742;2022-08-18T08:35:47;19.20;99.90
36670;DHT22;22662;47.412;9.742;2022-08-18T08:41:12;19.40;99.90
36670;DHT22;22662;47.412;9.742;2022-08-18T08:43:44;19.20;99.90
36670;DHT22;22662;47.412;9.742;2022-08-18T08:46:23;19.20;99.90
36670;DHT22;22662;47.412;9.742;2022-08-18T08:49:00;18.90;99.90
36670;DHT22;22662;47.412;9.742;2022-08-18T08:51:37;19.10;99.90
36670;DHT22;22662;47.412;9.742;2022-08-18T08:54:12;19.20;99.90
36670;DHT22;22662;47.412;9.742;2022-08-18T08:56:44;19.40;99.90
36670;DHT22;22662;47.412;9.742;2022-08-18T08:59:13;19.60;99.90
36670;DHT22;22662;47.412;9.742;2022-08-18T09:01:54;19.60;99.90
36670;DHT22;22662;47.412;9.742;2022-08-18T09:22:28;21.10;99.90
36670;DHT22;22662;47.412;9.742;2022-08-18T09:24:58;21.30;99.90
36670;DHT22;22662;47.412;9.742;2022-08-18T09:27:44;21.80;99.90
36670;DHT22;22662;47.412;9.742;2022-08-18T09:38:55;22.40;99.90
36670;DHT22;22662;47.412;9.742;2022-08-18T09:42:24;22.70;99.90
36670;DHT22;22662;47.412;9.742;2022-08-18T09:54:59;21.80;99.90
36670;DHT22;22662;47.412;9.742;2022-08-18T09:57:38;22.10;99.90
36670;DHT22;22662;47.412;9.742;2022-08-18T10:12:59;21.50;99.90
36670;DHT22;22662;47.412;9.742;2022-08-18T10:18:25;21.80;99.90
36670;DHT22;22662;47.412;9.742;2022-08-18T10:21:08;21.80;99.90
36670;DHT22;22662;47.412;9.742;2022-08-18T10:23:55;21.60;99.90
36670;DHT22;22662;47.412;9.742;2022-08-18T10:29:06;21.50;99.90
36670;DHT22;22662;47.412;9.742;2022-08-18T10:34:50;21.10;99.90
36670;DHT22;22662;47.412;9.742;2022-08-18T10:37:37;21.30;99.90
36670;DHT22;22662;47.412;9.742;2022-08-18T10:42:42;21.80;99.90
36670;DHT22;22662;47.412;9.742;2022-08-18T10:45:36;21.90;99.90
36670;DHT22;22662;47.412;9.742;2022-08-18T10:48:22;21.90;99.90
36670;DHT22;22662;47.412;9.742;2022-08-18T10:50:50;22.20;99.90
36670;DHT22;22662;47.412;9.742;2022-08-18T10:56:32;21.80;99.90
36670;DHT22;22662;47.412;9.742;2022-08-18T11:01:57;21.70;99.90
36670;DHT22;22662;47.412;9.742;2022-08-18T11:07:03;21.40;99.90
36670;DHT22;22662;47.412;9.742;2022-08-18T11:09:31;21.50;99.90
36670;DHT22;22662;47.412;9.742;2022-08-18T11:11:59;21.30;99.90
36670;DHT22;22662;47.412;9.742;2022-08-18T11:15:18;21.20;99.90
36670;DHT22;22662;47.412;9.742;2022-08-18T11:18:04;21.20;99.90
36670;DHT22;22662;47.412;9.742;2022-08-18T11:20:31;21.00;99.90
36670;DHT22;22662;47.412;9.742;2022-08-18T11:23:01;21.10;99.90
36670;DHT22;22662;47.412;9.742;2022-08-18T11:25:36;21.10;99.90
36670;DHT22;22662;47.412;9.742;2022-08-18T11:28:17;21.10;99.90
36670;DHT22;22662;47.412;9.742;2022-08-18T11:30:45;21.20;99.90
36670;DHT22;22662;47.412;9.742;2022-08-18T11:33:17;21.20;99.90
36670;DHT22;22662;47.412;9.742;2022-08-18T11:35:47;21.30;99.90
36670;DHT22;22662;47.412;9.742;2022-08-18T11:38:14;21.40;99.90
36670;DHT22;22662;47.412;9.742;2022-08-18T11:40:43;21.40;99.90
36670;DHT22;22662;47.412;9.742;2022-08-18T11:43:15;21.40;99.90
36670;DHT22;22662;47.412;9.742;2022-08-18T11:53:37;21.40;99.90
36670;DHT22;22662;47.412;9.742;2022-08-18T11:56:26;21.50;99.90
36670;DHT22;22662;47.412;9.742;2022-08-18T12:01:33;21.50;99.90
36670;DHT22;22662;47.412;9.742;2022-08-18T12:07:08;21.80;99.90
36670;DHT22;22662;47.412;9.742;2022-08-18T12:12:28;21.90;99.90
36670;DHT22;22662;47.412;9.742;2022-08-18T12:15:01;22.10;99.90
36670;DHT22;22662;47.412;9.742;2022-08-18T12:17:29;21.90;99.90
36670;DHT22;22662;47.412;9.742;2022-08-18T12:19:56;21.80;99.90
36670;DHT22;22662;47.412;9.742;2022-08-18T12:22:28;21.80;99.90
36670;DHT22;22662;47.412;9.742;2022-08-18T12:24:58;21.70;99.90
36670;DHT22;22662;47.412;9.742;2022-08-18T12:27:25;21.80;99.90
36670;DHT22;22662;47.412;9.742;2022-08-18T12:29:53;21.80;99.90
36670;DHT22;22662;47.412;9.742;2022-08-18T12:32:21;21.80;99.90
36670;DHT22;22662;47.412;9.742;2022-08-18T12:34:48;21.90;99.90
36670;DHT22;22662;47.412;9.742;2022-08-18T12:37:19;21.90;99.90
36670;DHT22;22662;47.412;9.742;2022-08-18T12:39:46;21.90;99.90
36670;DHT22;22662;47.412;9.742;2022-08-18T12:42:12;22.00;99.90
36670;DHT22;22662;47.412;9.742;2022-08-18T12:44:38;22.00;99.90
36670;DHT22;22662;47.412;9.742;2022-08-18T12:47:18;21.80;99.90
36670;DHT22;22662;47.412;9.742;2022-08-18T12:49:45;21.80;99.90
36670;DHT22;22662;47.412;9.742;2022-08-18T12:52:11;21.80;99.90
36670;DHT22;22662;47.412;9.742;2022-08-18T12:54:37;21.80;99.90
36670;DHT22;22662;47.412;9.742;2022-08-18T12:57:10;21.70;99.90
36670;DHT22;22662;47.412;9.742;2022-08-18T12:59:37;21.50;99.90
36670;DHT22;22662;47.412;9.742;2022-08-18T13:02:04;21.60;99.90
36670;DHT22;22662;47.412;9.742;2022-08-18T13:04:29;21.50;99.90
36670;DHT22;22662;47.412;9.742;2022-08-18T13:06:57;21.50;99.90
36670;DHT22;22662;47.412;9.742;2022-08-18T13:09:23;21.40;99.90
36670;DHT22;22662;47.412;9.742;2022-08-18T13:11:49;21.40;99.90
36670;DHT22;22662;47.412;9.742;2022-08-18T13:14:16;21.30;99.90
36670;DHT22;22662;47.412;9.742;2022-08-18T13:16:43;21.30;99.90
36670;DHT22;22662;47.412;9.742;2022-08-18T13:19:11;21.20;99.90
36670;DHT22;22662;47.412;9.742;2022-08-18T13:21:38;21.10;99.90
36670;DHT22;22662;47.412;9.742;2022-08-18T13:24:04;21.10;99.90
36670;DHT22;22662;47.412;9.742;2022-08-18T13:26:33;21.00;99.90
36670;DHT22;22662;47.412;9.742;2022-08-18T13:29:01;21.00;99.90
36670;DHT22;22662;47.412;9.742;2022-08-18T13:31:27;21.00;99.90
36670;DHT22;22662;47.412;9.742;2022-08-18T13:33:55;21.00;99.90
36670;DHT22;22662;47.412;9.742;2022-08-18T13:36:22;20.90;99.90
36670;DHT22;22662;47.412;9.742;2022-08-18T13:38:48;20.80;99.90
36670;DHT22;22662;47.412;9.742;2022-08-18T13:41:17;20.70;99.90
36670;DHT22;22662;47.412;9.742;2022-08-18T13:43:43;20.60;99.90
36670;DHT22;22662;47.412;9.742;2022-08-18T13:46:15;20.70;99.90
36670;DHT22;22662;47.412;9.742;2022-08-18T13:48:41;20.60;99.90
36670;DHT22;22662;47.412;9.742;2022-08-18T13:51:10;20.60;99.90
36670;DHT22;22662;47.412;9.742;2022-08-18T13:53:38;20.50;99.90
36670;DHT22;22662;47.412;9.742;2022-08-18T13:56:05;20.50;99.90
36670;DHT22;22662;47.412;9.742;2022-08-18T13:58:31;20.30;99.90
36670;DHT22;22662;47.412;9.742;2022-08-18T14:01:00;20.00;99.90
36670;DHT22;22662;47.412;9.742;2022-08-18T14:03:27;19.90;99.90
36670;DHT22;22662;47.412;9.742;2022-08-18T14:05:53;19.70;99.90
36670;DHT22;22662;47.412;9.742;2022-08-18T14:08:23;19.60;99.90
36670;DHT22;22662;47.412;9.742;2022-08-18T14:10:55;19.60;99.90
36670;DHT22;22662;47.412;9.742;2022-08-18T14:13:22;19.50;99.90
36670;DHT22;22662;47.412;9.742;2022-08-18T14:15:52;19.50;99.90
36670;DHT22;22662;47.412;9.742;2022-08-18T14:18:18;19.30;99.90
36670;DHT22;22662;47.412;9.742;2022-08-18T14:20:44;19.20;99.90
36670;DHT22;22662;47.412;9.742;2022-08-18T14:23:28;19.10;99.90
36670;DHT22;22662;47.412;9.742;2022-08-18T14:26:12;19.10;99.90
36670;DHT22;22662;47.412;9.742;2022-08-18T14:28:56;19.10;99.90
36670;DHT22;22662;47.412;9.742;2022-08-18T14:31:22;19.20;99.90
36670;DHT22;22662;47.412;9.742;2022-08-18T14:33:48;19.20;99.90
36670;DHT22;22662;47.412;9.742;2022-08-18T14:36:15;19.20;99.90
36670;DHT22;22662;47.412;9.742;2022-08-18T14:38:41;19.20;99.90
36670;DHT22;22662;47.412;9.742;2022-08-18T14:41:09;19.20;99.90
36670;DHT22;22662;47.412;9.742;2022-08-18T14:43:36;19.10;99.90
36670;DHT22;22662;47.412;9.742;2022-08-18T14:46:02;19.10;99.90
36670;DHT22;22662;47.412;9.742;2022-08-18T14:48:30;19.10;99.90
36670;DHT22;22662;47.412;9.742;2022-08-18T14:50:57;19.00;99.90
36670;DHT22;22662;47.412;9.742;2022-08-18T14:53:27;18.90;99.90
36670;DHT22;22662;47.412;9.742;2022-08-18T14:55:54;18.90;99.90
36670;DHT22;22662;47.412;9.742;2022-08-18T14:58:29;18.80;99.90
36670;DHT22;22662;47.412;9.742;2022-08-18T15:00:58;18.90;99.90
36670;DHT22;22662;47.412;9.742;2022-08-18T15:03:27;18.70;99.90
36670;DHT22;22662;47.412;9.742;2022-08-18T15:05:53;18.70;99.90
36670;DHT22;22662;47.412;9.742;2022-08-18T15:08:20;18.60;99.90
36670;DHT22;22662;47.412;9.742;2022-08-18T15:10:46;18.60;99.90
36670;DHT22;22662;47.412;9.742;2022-08-18T15:13:12;18.50;99.90
36670;DHT22;22662;47.412;9.742;2022-08-18T15:15:38;18.50;99.90
36670;DHT22;22662;47.412;9.742;2022-08-18T15:18:04;18.40;99.90
36670;DHT22;22662;47.412;9.742;2022-08-18T15:20:30;18.40;99.90
36670;DHT22;22662;47.412;9.742;2022-08-18T15:23:02;18.40;99.90
36670;DHT22;22662;47.412;9.742;2022-08-18T15:25:47;18.30;99.90
36670;DHT22;22662;47.412;9.742;2022-08-18T15:28:18;18.20;99.90
36670;DHT22;22662;47.412;9.742;2022-08-18T15:30:47;18.00;99.90
36670;DHT22;22662;47.412;9.742;2022-08-18T15:33:13;18.00;99.90
36670;DHT22;22662;47.412;9.742;2022-08-18T15:35:44;18.00;99.90
36670;DHT22;22662;47.412;9.742;2022-08-18T15:38:15;18.00;99.90
36670;DHT22;22662;47.412;9.742;2022-08-18T15:40:56;18.00;99.90
36670;DHT22;22662;47.412;9.742;2022-08-18T15:43:23;18.00;99.90
36670;DHT22;22662;47.412;9.742;2022-08-18T15:45:50;18.00;99.90
36670;DHT22;22662;47.412;9.742;2022-08-18T15:48:17;17.90;99.90
36670;DHT22;22662;47.412;9.742;2022-08-18T15:50:45;17.90;99.90
36670;DHT22;22662;47.412;9.742;2022-08-18T15:53:16;18.00;99.90
36670;DHT22;22662;47.412;9.742;2022-08-18T15:55:43;18.10;99.90
36670;DHT22;22662;47.412;9.742;2022-08-18T15:58:10;18.20;99.90
36670;DHT22;22662;47.412;9.742;2022-08-18T16:00:40;18.30;99.90
36670;DHT22;22662;47.412;9.742;2022-08-18T16:03:07;18.30;99.90
36670;DHT22;22662;47.412;9.742;2022-08-18T16:05:37;18.30;99.90
36670;DHT22;22662;47.412;9.742;2022-08-18T16:08:06;18.30;99.90
36670;DHT22;22662;47.412;9.742;2022-08-18T16:10:34;18.30;99.90
36670;DHT22;22662;47.412;9.742;2022-08-18T16:13:02;18.30;99.90
36670;DHT22;22662;47.412;9.742;2022-08-18T16:15:32;18.30;99.90
36670;DHT22;22662;47.412;9.742;2022-08-18T16:17:58;18.30;99.90
36670;DHT22;22662;47.412;9.742;2022-08-18T16:20:25;18.30;99.90
36670;DHT22;22662;47.412;9.742;2022-08-18T16:22:51;18.20;99.90
36670;DHT22;22662;47.412;9.742;2022-08-18T16:25:18;18.40;99.90
36670;DHT22;22662;47.412;9.742;2022-08-18T16:27:45;18.50;99.90
36670;DHT22;22662;47.412;9.742;2022-08-18T16:30:24;18.60;99.90
36670;DHT22;22662;47.412;9.742;2022-08-18T16:32:51;18.60;99.90
36670;DHT22;22662;47.412;9.742;2022-08-18T16:35:17;18.40;99.90
36670;DHT22;22662;47.412;9.742;2022-08-18T16:37:44;18.40;99.90
36670;DHT22;22662;47.412;9.742;2022-08-18T16:40:14;18.50;99.90
36670;DHT22;22662;47.412;9.742;2022-08-18T16:42:40;18.50;99.90
36670;DHT22;22662;47.412;9.742;2022-08-18T16:45:06;18.50;99.90
36670;DHT22;22662;47.412;9.742;2022-08-18T16:47:34;18.60;99.90
36670;DHT22;22662;47.412;9.742;2022-08-18T16:50:11;18.60;99.90
36670;DHT22;22662;47.412;9.742;2022-08-18T16:52:38;18.70;99.90
36670;DHT22;22662;47.412;9.742;2022-08-18T16:55:06;18.80;99.90
36670;DHT22;22662;47.412;9.742;2022-08-18T16:57:32;18.80;99.90
36670;DHT22;22662;47.412;9.742;2022-08-18T17:00:16;18.80;99.90
36670;DHT22;22662;47.412;9.742;2022-08-18T17:03:05;18.80;99.90
36670;DHT22;22662;47.412;9.742;2022-08-18T17:05:57;18.90;99.90
36670;DHT22;22662;47.412;9.742;2022-08-18T17:08:23;19.00;99.90
36670;DHT22;22662;47.412;9.742;2022-08-18T17:10:50;19.00;99.90
36670;DHT22;22662;47.412;9.742;2022-08-18T17:13:18;19.00;99.90
36670;DHT22;22662;47.412;9.742;2022-08-18T17:15:50;18.90;99.90
36670;DHT22;22662;47.412;9.742;2022-08-18T17:18:17;18.90;99.90
36670;DHT22;22662;47.412;9.742;2022-08-18T17:20:44;18.90;99.90
36670;DHT22;22662;47.412;9.742;2022-08-18T17:23:11;18.80;99.90
36670;DHT22;22662;47.412;9.742;2022-08-18T17:25:37;18.60;99.90
36670;DHT22;22662;47.412;9.742;2022-08-18T17:28:04;18.50;99.90
36670;DHT22;22662;47.412;9.742;2022-08-18T17:30:33;18.40;99.90
36670;DHT22;22662;47.412;9.742;2022-08-18T17:33:23;18.50;99.90
36670;DHT22;22662;47.412;9.742;2022-08-18T17:35:51;18.50;99.90
36670;DHT22;22662;47.412;9.742;2022-08-18T17:38:23;18.60;99.90
36670;DHT22;22662;47.412;9.742;2022-08-18T17:40:53;18.60;99.90
36670;DHT22;22662;47.412;9.742;2022-08-18T17:43:27;18.70;99.90
36670;DHT22;22662;47.412;9.742;2022-08-18T17:46:09;18.70;99.90
36670;DHT22;22662;47.412;9.742;2022-08-18T17:48:45;18.70;99.90
36670;DHT22;22662;47.412;9.742;2022-08-18T17:51:16;18.70;99.90
36670;DHT22;22662;47.412;9.742;2022-08-18T17:53:59;18.60;99.90
36670;DHT22;22662;47.412;9.742;2022-08-18T17:56:40;18.50;99.90
36670;DHT22;22662;47.412;9.742;2022-08-18T17:59:10;18.50;99.90
36670;DHT22;22662;47.412;9.742;2022-08-18T18:01:38;18.60;99.90
36670;DHT22;22662;47.412;9.742;2022-08-18T18:04:07;18.40;99.90
36670;DHT22;22662;47.412;9.742;2022-08-18T18:09:08;18.30;99.90
36670;DHT22;22662;47.412;9.742;2022-08-18T18:11:37;18.30;99.90
36670;DHT22;22662;47.412;9.742;2022-08-18T18:19:29;18.30;99.90
36670;DHT22;22662;47.412;9.742;2022-08-18T18:22:07;18.30;99.90
36670;DHT22;22662;47.412;9.742;2022-08-18T18:24:36;18.40;99.90
36670;DHT22;22662;47.412;9.742;2022-08-18T18:27:23;18.40;99.90
36670;DHT22;22662;47.412;9.742;2022-08-18T18:42:51;18.30;99.90
36670;DHT22;22662;47.412;9.742;2022-08-18T18:48:09;18.20;99.90
36670;DHT22;22662;47.412;9.742;2022-08-18T18:56:16;18.20;99.90
36670;DHT22;22662;47.412;9.742;2022-08-18T19:04:35;18.30;99.90